sensor_id;sensor_type;location;lat;lon;timestamp;P1;durP1;ratioP1;P2;durP2;ratioP2
69527;SDS011;57136;51.986;4.468;2022-08-19T00:01:03;14.73;;;10.32;;
69527;SDS011;57136;51.986;4.468;2022-08-19T00:03:29;13.80;;;10.38;;
69527;SDS011;57136;51.986;4.468;2022-08-19T00:05:54;12.23;;;9.73;;
69527;SDS011;57136;51.986;4.468;2022-08-19T00:08:20;14.18;;;10.05;;
69527;SDS011;57136;51.986;4.468;2022-08-19T00:10:46;10.32;;;9.05;;
69527;SDS011;57136;51.986;4.468;2022-08-19T00:13:12;15.30;;;9.25;;
69527;SDS011;57136;51.986;4.468;2022-08-19T00:15:38;12.63;;;9.57;;
69527;SDS011;57136;51.986;4.468;2022-08-19T00:18:04;11.40;;;8.80;;
69527;SDS011;57136;51.986;4.468;2022-08-19T00:20:29;14.80;;;9.82;;
69527;SDS011;57136;51.986;4.468;2022-08-19T00:22:54;16.58;;;9.90;;
69527;SDS011;57136;51.986;4.468;2022-08-19T00:25:20;13.13;;;10.02;;
69527;SDS011;57136;51.986;4.468;2022-08-19T00:27:46;11.25;;;8.93;;
69527;SDS011;57136;51.986;4.468;2022-08-19T00:30:12;16.88;;;10.20;;
69527;SDS011;57136;51.986;4.468;2022-08-19T00:32:38;16.17;;;10.88;;
69527;SDS011;57136;51.986;4.468;2022-08-19T00:35:04;14.63;;;10.35;;
69527;SDS011;57136;51.986;4.468;2022-08-19T00:37:30;14.57;;;10.73;;
69527;SDS011;57136;51.986;4.468;2022-08-19T00:39:55;18.10;;;10.93;;
69527;SDS011;57136;51.986;4.468;2022-08-19T00:42:21;15.18;;;10.93;;
69527;SDS011;57136;51.986;4.468;2022-08-19T00:44:47;16.17;;;10.68;;
69527;SDS011;57136;51.986;4.468;2022-08-19T00:47:12;13.65;;;10.30;;
69527;SDS011;57136;51.986;4.468;2022-08-19T00:49:43;15.75;;;10.85;;
69527;SDS011;57136;51.986;4.468;2022-08-19T00:52:16;15.68;;;10.60;;
69527;SDS011;57136;51.986;4.468;2022-08-19T00:54:46;14.95;;;10.10;;
69527;SDS011;57136;51.986;4.468;2022-08-19T00:57:13;12.30;;;10.57;;
69527;SDS011;57136;51.986;4.468;2022-08-19T00:59:42;15.10;;;10.38;;
69527;SDS011;57136;51.986;4.468;2022-08-19T01:02:11;14.40;;;11.07;;
69527;SDS011;57136;51.986;4.468;2022-08-19T01:04:36;13.98;;;10.40;;
69527;SDS011;57136;51.986;4.468;2022-08-19T01:07:02;14.00;;;9.80;;
69527;SDS011;57136;51.986;4.468;2022-08-19T01:09:29;15.40;;;10.85;;
69527;SDS011;57136;51.986;4.468;2022-08-19T01:11:54;14.63;;;10.80;;
69527;SDS011;57136;51.986;4.468;2022-08-19T01:14:21;15.10;;;10.55;;
69527;SDS011;57136;51.986;4.468;2022-08-19T01:16:46;13.30;;;10.38;;
69527;SDS011;57136;51.986;4.468;2022-08-19T01:19:18;15.18;;;11.18;;
69527;SDS011;57136;51.986;4.468;2022-08-19T01:21:49;12.32;;;9.48;;
69527;SDS011;57136;51.986;4.468;2022-08-19T01:24:20;12.48;;;10.18;;
69527;SDS011;57136;51.986;4.468;2022-08-19T01:26:45;14.05;;;10.40;;
69527;SDS011;57136;51.986;4.468;2022-08-19T01:29:11;15.80;;;10.65;;
69527;SDS011;57136;51.986;4.468;2022-08-19T01:31:37;14.45;;;10.43;;
69527;SDS011;57136;51.986;4.468;2022-08-19T01:34:04;16.38;;;10.25;;
69527;SDS011;57136;51.986;4.468;2022-08-19T01:36:37;14.52;;;10.13;;
69527;SDS011;57136;51.986;4.468;2022-08-19T01:39:08;14.90;;;9.88;;
69527;SDS011;57136;51.986;4.468;2022-08-19T01:41:35;13.07;;;10.13;;
69527;SDS011;57136;51.986;4.468;2022-08-19T01:44:01;15.40;;;10.57;;
69527;SDS011;57136;51.986;4.468;2022-08-19T01:46:29;15.60;;;9.75;;
69527;SDS011;57136;51.986;4.468;2022-08-19T01:48:56;14.00;;;9.70;;
69527;SDS011;57136;51.986;4.468;2022-08-19T01:51:21;12.82;;;10.10;;
69527;SDS011;57136;51.986;4.468;2022-08-19T01:53:47;13.43;;;9.95;;
69527;SDS011;57136;51.986;4.468;2022-08-19T01:56:14;13.38;;;9.45;;
69527;SDS011;57136;51.986;4.468;2022-08-19T01:58:41;13.43;;;9.68;;
69527;SDS011;57136;51.986;4.468;2022-08-19T02:01:12;16.45;;;11.43;;
69527;SDS011;57136;51.986;4.468;2022-08-19T02:03:38;12.57;;;9.70;;
69527;SDS011;57136;51.986;4.468;2022-08-19T02:06:04;13.48;;;10.85;;
69527;SDS011;57136;51.986;4.468;2022-08-19T02:08:30;13.35;;;10.57;;
69527;SDS011;57136;51.986;4.468;2022-08-19T02:10:58;16.70;;;10.95;;
69527;SDS011;57136;51.986;4.468;2022-08-19T02:13:24;17.50;;;11.95;;
69527;SDS011;57136;51.986;4.468;2022-08-19T02:15:50;18.23;;;12.35;;
69527;SDS011;57136;51.986;4.468;2022-08-19T02:18:15;19.35;;;12.25;;
69527;SDS011;57136;51.986;4.468;2022-08-19T02:20:41;25.85;;;14.95;;
69527;SDS011;57136;51.986;4.468;2022-08-19T02:23:08;27.70;;;15.65;;
69527;SDS011;57136;51.986;4.468;2022-08-19T02:25:34;23.35;;;15.00;;
69527;SDS011;57136;51.986;4.468;2022-08-19T02:28:00;30.45;;;17.70;;
69527;SDS011;57136;51.986;4.468;2022-08-19T02:30:25;31.80;;;18.95;;
69527;SDS011;57136;51.986;4.468;2022-08-19T02:32:51;34.90;;;20.92;;
69527;SDS011;57136;51.986;4.468;2022-08-19T02:35:17;34.38;;;20.77;;
69527;SDS011;57136;51.986;4.468;2022-08-19T02:37:43;44.20;;;24.15;;
69527;SDS011;57136;51.986;4.468;2022-08-19T02:40:28;36.63;;;22.27;;
69527;SDS011;57136;51.986;4.468;2022-08-19T02:43:01;41.78;;;23.02;;
69527;SDS011;57136;51.986;4.468;2022-08-19T02:45:36;44.53;;;23.63;;
69527;SDS011;57136;51.986;4.468;2022-08-19T02:48:04;40.65;;;22.27;;
69527;SDS011;57136;51.986;4.468;2022-08-19T02:50:29;46.38;;;25.02;;
69527;SDS011;57136;51.986;4.468;2022-08-19T02:52:55;44.72;;;25.20;;
69527;SDS011;57136;51.986;4.468;2022-08-19T02:55:21;46.08;;;25.52;;
69527;SDS011;57136;51.986;4.468;2022-08-19T02:57:47;43.80;;;23.63;;
69527;SDS011;57136;51.986;4.468;2022-08-19T03:00:13;41.55;;;23.33;;
69527;SDS011;57136;51.986;4.468;2022-08-19T03:02:39;44.97;;;24.55;;
69527;SDS011;57136;51.986;4.468;2022-08-19T03:05:06;46.47;;;26.83;;
69527;SDS011;57136;51.986;4.468;2022-08-19T03:07:34;45.33;;;26.13;;
69527;SDS011;57136;51.986;4.468;2022-08-19T03:10:00;44.28;;;25.45;;
69527;SDS011;57136;51.986;4.468;2022-08-19T03:12:26;47.28;;;27.15;;
69527;SDS011;57136;51.986;4.468;2022-08-19T03:14:51;45.80;;;26.08;;
69527;SDS011;57136;51.986;4.468;2022-08-19T03:17:17;44.47;;;25.13;;
69527;SDS011;57136;51.986;4.468;2022-08-19T03:19:43;46.40;;;25.13;;
69527;SDS011;57136;51.986;4.468;2022-08-19T03:22:08;45.85;;;25.38;;
69527;SDS011;57136;51.986;4.468;2022-08-19T03:24:33;44.17;;;25.98;;
69527;SDS011;57136;51.986;4.468;2022-08-19T03:26:59;53.08;;;29.83;;
69527;SDS011;57136;51.986;4.468;2022-08-19T03:29:28;48.85;;;27.42;;
69527;SDS011;57136;51.986;4.468;2022-08-19T03:31:56;48.72;;;27.30;;
69527;SDS011;57136;51.986;4.468;2022-08-19T03:34:23;52.15;;;26.10;;
69527;SDS011;57136;51.986;4.468;2022-08-19T03:36:58;49.53;;;28.02;;
69527;SDS011;57136;51.986;4.468;2022-08-19T03:39:26;49.53;;;27.40;;
69527;SDS011;57136;51.986;4.468;2022-08-19T03:41:52;53.85;;;27.73;;
69527;SDS011;57136;51.986;4.468;2022-08-19T03:44:22;50.10;;;26.98;;
69527;SDS011;57136;51.986;4.468;2022-08-19T03:46:49;54.15;;;29.25;;
69527;SDS011;57136;51.986;4.468;2022-08-19T03:49:16;53.78;;;28.95;;
69527;SDS011;57136;51.986;4.468;2022-08-19T03:51:42;53.67;;;27.45;;
69527;SDS011;57136;51.986;4.468;2022-08-19T03:54:09;53.38;;;28.42;;
69527;SDS011;57136;51.986;4.468;2022-08-19T03:56:38;56.80;;;28.17;;
69527;SDS011;57136;51.986;4.468;2022-08-19T03:59:05;58.35;;;28.42;;
69527;SDS011;57136;51.986;4.468;2022-08-19T04:01:32;63.72;;;31.98;;
69527;SDS011;57136;51.986;4.468;2022-08-19T04:03:58;74.53;;;34.90;;
69527;SDS011;57136;51.986;4.468;2022-08-19T04:06:26;70.30;;;33.60;;
69527;SDS011;57136;51.986;4.468;2022-08-19T04:08:55;73.15;;;35.60;;
69527;SDS011;57136;51.986;4.468;2022-08-19T04:11:24;76.05;;;35.85;;
69527;SDS011;57136;51.986;4.468;2022-08-19T04:13:55;72.68;;;34.70;;
69527;SDS011;57136;51.986;4.468;2022-08-19T04:16:22;81.95;;;37.70;;
69527;SDS011;57136;51.986;4.468;2022-08-19T04:18:49;81.35;;;36.05;;
69527;SDS011;57136;51.986;4.468;2022-08-19T04:21:19;84.97;;;39.15;;
69527;SDS011;57136;51.986;4.468;2022-08-19T04:23:46;85.60;;;38.55;;
69527;SDS011;57136;51.986;4.468;2022-08-19T04:26:15;87.28;;;37.92;;
69527;SDS011;57136;51.986;4.468;2022-08-19T04:28:45;81.73;;;36.90;;
69527;SDS011;57136;51.986;4.468;2022-08-19T04:31:15;85.78;;;38.05;;
69527;SDS011;57136;51.986;4.468;2022-08-19T04:33:43;79.60;;;36.78;;
69527;SDS011;57136;51.986;4.468;2022-08-19T04:36:15;83.15;;;36.35;;
69527;SDS011;57136;51.986;4.468;2022-08-19T04:38:42;73.85;;;34.58;;
69527;SDS011;57136;51.986;4.468;2022-08-19T04:41:08;69.32;;;33.03;;
69527;SDS011;57136;51.986;4.468;2022-08-19T04:43:52;65.53;;;33.10;;
69527;SDS011;57136;51.986;4.468;2022-08-19T04:46:17;76.10;;;33.80;;
69527;SDS011;57136;51.986;4.468;2022-08-19T04:48:43;73.38;;;34.13;;
69527;SDS011;57136;51.986;4.468;2022-08-19T04:51:09;68.78;;;31.55;;
69527;SDS011;57136;51.986;4.468;2022-08-19T04:53:38;67.60;;;32.40;;
69527;SDS011;57136;51.986;4.468;2022-08-19T04:56:09;70.15;;;33.45;;
69527;SDS011;57136;51.986;4.468;2022-08-19T04:58:37;63.75;;;31.40;;
69527;SDS011;57136;51.986;4.468;2022-08-19T05:01:04;65.22;;;31.55;;
69527;SDS011;57136;51.986;4.468;2022-08-19T05:03:30;60.67;;;30.52;;
69527;SDS011;57136;51.986;4.468;2022-08-19T05:06:03;66.05;;;32.67;;
69527;SDS011;57136;51.986;4.468;2022-08-19T05:08:32;61.28;;;30.10;;
69527;SDS011;57136;51.986;4.468;2022-08-19T05:10:59;69.03;;;32.15;;
69527;SDS011;57136;51.986;4.468;2022-08-19T05:13:24;65.75;;;30.30;;
69527;SDS011;57136;51.986;4.468;2022-08-19T05:15:54;65.65;;;31.75;;
69527;SDS011;57136;51.986;4.468;2022-08-19T05:18:22;61.00;;;30.60;;
69527;SDS011;57136;51.986;4.468;2022-08-19T05:21:14;63.83;;;32.20;;
69527;SDS011;57136;51.986;4.468;2022-08-19T05:23:59;61.65;;;29.77;;
69527;SDS011;57136;51.986;4.468;2022-08-19T05:26:25;58.60;;;31.92;;
69527;SDS011;57136;51.986;4.468;2022-08-19T05:28:54;58.47;;;30.05;;
69527;SDS011;57136;51.986;4.468;2022-08-19T05:31:20;58.72;;;30.23;;
69527;SDS011;57136;51.986;4.468;2022-08-19T05:33:46;55.30;;;29.42;;
69527;SDS011;57136;51.986;4.468;2022-08-19T05:36:12;54.03;;;30.20;;
69527;SDS011;57136;51.986;4.468;2022-08-19T05:38:38;54.85;;;30.05;;
69527;SDS011;57136;51.986;4.468;2022-08-19T05:41:10;58.00;;;30.27;;
69527;SDS011;57136;51.986;4.468;2022-08-19T05:43:37;60.42;;;33.03;;
69527;SDS011;57136;51.986;4.468;2022-08-19T05:46:06;52.08;;;31.55;;
69527;SDS011;57136;51.986;4.468;2022-08-19T05:48:33;58.72;;;30.55;;
69527;SDS011;57136;51.986;4.468;2022-08-19T05:51:06;55.10;;;30.80;;
69527;SDS011;57136;51.986;4.468;2022-08-19T05:53:33;51.05;;;30.17;;
69527;SDS011;57136;51.986;4.468;2022-08-19T05:56:08;53.55;;;28.67;;
69527;SDS011;57136;51.986;4.468;2022-08-19T05:58:36;55.60;;;29.15;;
69527;SDS011;57136;51.986;4.468;2022-08-19T06:01:03;44.30;;;28.60;;
69527;SDS011;57136;51.986;4.468;2022-08-19T06:03:34;51.40;;;27.50;;
69527;SDS011;57136;51.986;4.468;2022-08-19T06:06:02;48.05;;;29.27;;
69527;SDS011;57136;51.986;4.468;2022-08-19T06:08:28;48.20;;;29.13;;
69527;SDS011;57136;51.986;4.468;2022-08-19T06:10:54;53.42;;;28.88;;
69527;SDS011;57136;51.986;4.468;2022-08-19T06:13:22;48.08;;;28.85;;
69527;SDS011;57136;51.986;4.468;2022-08-19T06:15:49;46.25;;;27.10;;
69527;SDS011;57136;51.986;4.468;2022-08-19T06:18:14;48.38;;;28.88;;
69527;SDS011;57136;51.986;4.468;2022-08-19T06:20:41;52.13;;;28.27;;
69527;SDS011;57136;51.986;4.468;2022-08-19T06:23:07;42.45;;;28.92;;
69527;SDS011;57136;51.986;4.468;2022-08-19T06:25:33;44.63;;;27.55;;
69527;SDS011;57136;51.986;4.468;2022-08-19T06:27:59;47.45;;;28.27;;
69527;SDS011;57136;51.986;4.468;2022-08-19T06:30:24;47.60;;;30.42;;
69527;SDS011;57136;51.986;4.468;2022-08-19T06:32:50;54.10;;;30.65;;
69527;SDS011;57136;51.986;4.468;2022-08-19T06:35:15;47.40;;;27.95;;
69527;SDS011;57136;51.986;4.468;2022-08-19T06:37:40;44.92;;;27.17;;
69527;SDS011;57136;51.986;4.468;2022-08-19T06:40:07;46.05;;;29.00;;
69527;SDS011;57136;51.986;4.468;2022-08-19T06:42:35;43.28;;;25.80;;
69527;SDS011;57136;51.986;4.468;2022-08-19T06:45:03;42.78;;;26.52;;
69527;SDS011;57136;51.986;4.468;2022-08-19T06:47:30;42.88;;;26.42;;
69527;SDS011;57136;51.986;4.468;2022-08-19T06:49:57;47.38;;;27.20;;
69527;SDS011;57136;51.986;4.468;2022-08-19T06:52:33;44.72;;;25.73;;
69527;SDS011;57136;51.986;4.468;2022-08-19T06:55:00;41.15;;;25.52;;
69527;SDS011;57136;51.986;4.468;2022-08-19T06:57:26;43.70;;;26.45;;
69527;SDS011;57136;51.986;4.468;2022-08-19T06:59:51;40.95;;;25.42;;
69527;SDS011;57136;51.986;4.468;2022-08-19T07:02:17;42.40;;;24.90;;
69527;SDS011;57136;51.986;4.468;2022-08-19T07:04:42;41.78;;;25.58;;
69527;SDS011;57136;51.986;4.468;2022-08-19T07:07:12;42.55;;;24.98;;
69527;SDS011;57136;51.986;4.468;2022-08-19T07:09:41;34.83;;;24.25;;
69527;SDS011;57136;51.986;4.468;2022-08-19T07:12:10;35.65;;;23.90;;
69527;SDS011;57136;51.986;4.468;2022-08-19T07:14:37;42.40;;;23.90;;
69527;SDS011;57136;51.986;4.468;2022-08-19T07:17:04;41.20;;;23.83;;
69527;SDS011;57136;51.986;4.468;2022-08-19T07:19:33;37.53;;;22.60;;
69527;SDS011;57136;51.986;4.468;2022-08-19T07:22:01;34.88;;;22.65;;
69527;SDS011;57136;51.986;4.468;2022-08-19T07:24:29;34.30;;;21.73;;
69527;SDS011;57136;51.986;4.468;2022-08-19T07:26:56;29.25;;;19.20;;
69527;SDS011;57136;51.986;4.468;2022-08-19T07:29:25;26.40;;;19.23;;
69527;SDS011;57136;51.986;4.468;2022-08-19T07:31:52;29.10;;;18.73;;
69527;SDS011;57136;51.986;4.468;2022-08-19T07:34:21;28.10;;;19.65;;
69527;SDS011;57136;51.986;4.468;2022-08-19T07:36:48;29.67;;;19.73;;
69527;SDS011;57136;51.986;4.468;2022-08-19T07:39:17;28.08;;;18.88;;
69527;SDS011;57136;51.986;4.468;2022-08-19T07:41:47;32.08;;;18.48;;
69527;SDS011;57136;51.986;4.468;2022-08-19T07:44:14;28.10;;;18.45;;
69527;SDS011;57136;51.986;4.468;2022-08-19T07:46:42;26.27;;;18.98;;
69527;SDS011;57136;51.986;4.468;2022-08-19T07:49:11;32.63;;;20.98;;
69527;SDS011;57136;51.986;4.468;2022-08-19T07:51:42;32.42;;;20.25;;
69527;SDS011;57136;51.986;4.468;2022-08-19T07:54:08;25.83;;;19.77;;
69527;SDS011;57136;51.986;4.468;2022-08-19T07:56:34;30.45;;;20.30;;
69527;SDS011;57136;51.986;4.468;2022-08-19T07:59:00;26.17;;;19.02;;
69527;SDS011;57136;51.986;4.468;2022-08-19T08:01:26;22.27;;;17.05;;
69527;SDS011;57136;51.986;4.468;2022-08-19T08:03:55;27.92;;;17.42;;
69527;SDS011;57136;51.986;4.468;2022-08-19T08:06:40;22.25;;;16.63;;
69527;SDS011;57136;51.986;4.468;2022-08-19T08:09:30;26.70;;;15.70;;
69527;SDS011;57136;51.986;4.468;2022-08-19T08:11:59;23.65;;;15.48;;
69527;SDS011;57136;51.986;4.468;2022-08-19T08:14:32;22.30;;;15.60;;
69527;SDS011;57136;51.986;4.468;2022-08-19T08:17:00;21.48;;;15.25;;
69527;SDS011;57136;51.986;4.468;2022-08-19T08:19:27;25.08;;;13.02;;
69527;SDS011;57136;51.986;4.468;2022-08-19T08:21:54;20.50;;;12.82;;
69527;SDS011;57136;51.986;4.468;2022-08-19T08:24:21;20.20;;;12.90;;
69527;SDS011;57136;51.986;4.468;2022-08-19T08:26:48;18.13;;;11.95;;
69527;SDS011;57136;51.986;4.468;2022-08-19T08:29:13;18.42;;;12.48;;
69527;SDS011;57136;51.986;4.468;2022-08-19T08:31:41;20.05;;;12.90;;
69527;SDS011;57136;51.986;4.468;2022-08-19T08:34:08;20.17;;;11.20;;
69527;SDS011;57136;51.986;4.468;2022-08-19T08:36:38;17.88;;;11.00;;
69527;SDS011;57136;51.986;4.468;2022-08-19T08:39:10;14.38;;;10.18;;
69527;SDS011;57136;51.986;4.468;2022-08-19T08:41:43;15.77;;;9.45;;
69527;SDS011;57136;51.986;4.468;2022-08-19T08:44:17;16.42;;;9.45;;
69527;SDS011;57136;51.986;4.468;2022-08-19T08:46:53;17.70;;;9.60;;
69527;SDS011;57136;51.986;4.468;2022-08-19T08:49:26;16.48;;;9.60;;
69527;SDS011;57136;51.986;4.468;2022-08-19T08:52:15;13.65;;;9.98;;
69527;SDS011;57136;51.986;4.468;2022-08-19T08:54:47;17.75;;;9.80;;
69527;SDS011;57136;51.986;4.468;2022-08-19T08:57:17;16.45;;;8.60;;
69527;SDS011;57136;51.986;4.468;2022-08-19T08:59:48;13.93;;;8.60;;
69527;SDS011;57136;51.986;4.468;2022-08-19T09:02:18;13.00;;;8.52;;
69527;SDS011;57136;51.986;4.468;2022-08-19T09:04:44;9.40;;;7.22;;
69527;SDS011;57136;51.986;4.468;2022-08-19T09:10:32;12.02;;;8.23;;
69527;SDS011;57136;51.986;4.468;2022-08-19T09:15:39;12.10;;;9.05;;
69527;SDS011;57136;51.986;4.468;2022-08-19T09:18:32;14.18;;;8.00;;
69527;SDS011;57136;51.986;4.468;2022-08-19T09:21:16;10.70;;;7.60;;
69527;SDS011;57136;51.986;4.468;2022-08-19T09:23:42;11.80;;;7.53;;
69527;SDS011;57136;51.986;4.468;2022-08-19T09:26:09;9.85;;;7.07;;
69527;SDS011;57136;51.986;4.468;2022-08-19T09:28:39;14.43;;;7.60;;
69527;SDS011;57136;51.986;4.468;2022-08-19T09:31:12;11.10;;;7.57;;
69527;SDS011;57136;51.986;4.468;2022-08-19T09:33:39;9.57;;;6.88;;
69527;SDS011;57136;51.986;4.468;2022-08-19T09:36:10;12.00;;;6.57;;
69527;SDS011;57136;51.986;4.468;2022-08-19T09:38:37;9.77;;;6.38;;
69527;SDS011;57136;51.986;4.468;2022-08-19T09:41:13;8.77;;;6.18;;
69527;SDS011;57136;51.986;4.468;2022-08-19T09:43:41;11.27;;;7.30;;
69527;SDS011;57136;51.986;4.468;2022-08-19T09:46:08;11.77;;;7.65;;
69527;SDS011;57136;51.986;4.468;2022-08-19T09:48:38;9.07;;;7.22;;
69527;SDS011;57136;51.986;4.468;2022-08-19T09:51:05;9.63;;;5.88;;
69527;SDS011;57136;51.986;4.468;2022-08-19T09:53:36;8.85;;;5.57;;
69527;SDS011;57136;51.986;4.468;2022-08-19T09:56:03;7.22;;;5.05;;
69527;SDS011;57136;51.986;4.468;2022-08-19T09:58:29;7.53;;;4.82;;
69527;SDS011;57136;51.986;4.468;2022-08-19T10:00:55;6.18;;;4.93;;
69527;SDS011;57136;51.986;4.468;2022-08-19T10:03:23;7.57;;;5.40;;
69527;SDS011;57136;51.986;4.468;2022-08-19T10:05:49;9.18;;;5.40;;
69527;SDS011;57136;51.986;4.468;2022-08-19T10:08:22;6.35;;;5.03;;
69527;SDS011;57136;51.986;4.468;2022-08-19T10:10:50;11.27;;;5.63;;
69527;SDS011;57136;51.986;4.468;2022-08-19T10:13:17;8.35;;;6.05;;
69527;SDS011;57136;51.986;4.468;2022-08-19T10:15:47;9.40;;;6.50;;
69527;SDS011;57136;51.986;4.468;2022-08-19T10:18:15;7.57;;;5.45;;
69527;SDS011;57136;51.986;4.468;2022-08-19T10:20:42;6.78;;;5.13;;
69527;SDS011;57136;51.986;4.468;2022-08-19T10:23:10;7.20;;;4.85;;
69527;SDS011;57136;51.986;4.468;2022-08-19T10:25:35;6.57;;;4.13;;
69527;SDS011;57136;51.986;4.468;2022-08-19T10:28:01;3.92;;;3.38;;
69527;SDS011;57136;51.986;4.468;2022-08-19T10:30:26;10.30;;;3.47;;
69527;SDS011;57136;51.986;4.468;2022-08-19T10:32:52;6.47;;;3.33;;
69527;SDS011;57136;51.986;4.468;2022-08-19T10:35:18;6.00;;;3.65;;
69527;SDS011;57136;51.986;4.468;2022-08-19T10:37:43;4.43;;;3.30;;
69527;SDS011;57136;51.986;4.468;2022-08-19T10:40:09;4.70;;;3.00;;
69527;SDS011;57136;51.986;4.468;2022-08-19T10:42:36;3.08;;;2.28;;
69527;SDS011;57136;51.986;4.468;2022-08-19T10:45:02;6.32;;;2.90;;
69527;SDS011;57136;51.986;4.468;2022-08-19T10:47:32;3.47;;;2.60;;
69527;SDS011;57136;51.986;4.468;2022-08-19T10:49:58;5.10;;;2.55;;
69527;SDS011;57136;51.986;4.468;2022-08-19T10:52:45;2.63;;;1.88;;
69527;SDS011;57136;51.986;4.468;2022-08-19T10:55:11;2.38;;;1.85;;
69527;SDS011;57136;51.986;4.468;2022-08-19T10:57:56;2.40;;;1.73;;
69527;SDS011;57136;51.986;4.468;2022-08-19T11:00:23;2.70;;;1.80;;
69527;SDS011;57136;51.986;4.468;2022-08-19T11:02:50;4.47;;;1.95;;
69527;SDS011;57136;51.986;4.468;2022-08-19T11:05:16;5.25;;;2.83;;
69527;SDS011;57136;51.986;4.468;2022-08-19T11:07:42;6.72;;;2.95;;
69527;SDS011;57136;51.986;4.468;2022-08-19T11:10:09;3.80;;;3.00;;
69527;SDS011;57136;51.986;4.468;2022-08-19T11:12:37;8.18;;;2.97;;
69527;SDS011;57136;51.986;4.468;2022-08-19T11:15:09;7.15;;;3.15;;
69527;SDS011;57136;51.986;4.468;2022-08-19T11:17:36;3.83;;;2.58;;
69527;SDS011;57136;51.986;4.468;2022-08-19T11:20:05;5.78;;;3.15;;
69527;SDS011;57136;51.986;4.468;2022-08-19T11:22:31;3.60;;;2.72;;
69527;SDS011;57136;51.986;4.468;2022-08-19T11:24:57;6.00;;;2.95;;
69527;SDS011;57136;51.986;4.468;2022-08-19T11:27:22;4.60;;;2.55;;
69527;SDS011;57136;51.986;4.468;2022-08-19T11:29:47;3.20;;;2.05;;
69527;SDS011;57136;51.986;4.468;2022-08-19T11:32:13;2.53;;;1.75;;
69527;SDS011;57136;51.986;4.468;2022-08-19T11:34:38;4.20;;;2.00;;
69527;SDS011;57136;51.986;4.468;2022-08-19T11:37:04;4.70;;;2.15;;
69527;SDS011;57136;51.986;4.468;2022-08-19T11:39:31;7.35;;;2.42;;
69527;SDS011;57136;51.986;4.468;2022-08-19T11:41:58;2.97;;;2.00;;
69527;SDS011;57136;51.986;4.468;2022-08-19T11:44:25;2.55;;;2.17;;
69527;SDS011;57136;51.986;4.468;2022-08-19T11:49:19;3.20;;;2.30;;
69527;SDS011;57136;51.986;4.468;2022-08-19T11:51:46;4.18;;;2.45;;
69527;SDS011;57136;51.986;4.468;2022-08-19T11:54:13;4.57;;;2.78;;
69527;SDS011;57136;51.986;4.468;2022-08-19T11:56:41;6.00;;;2.47;;
69527;SDS011;57136;51.986;4.468;2022-08-19T11:59:07;4.55;;;3.03;;
69527;SDS011;57136;51.986;4.468;2022-08-19T12:01:33;4.45;;;2.70;;
69527;SDS011;57136;51.986;4.468;2022-08-19T12:03:59;5.10;;;2.83;;
69527;SDS011;57136;51.986;4.468;2022-08-19T12:06:25;4.38;;;2.50;;
69527;SDS011;57136;51.986;4.468;2022-08-19T12:08:57;3.15;;;2.40;;
69527;SDS011;57136;51.986;4.468;2022-08-19T12:11:24;3.65;;;2.70;;
69527;SDS011;57136;51.986;4.468;2022-08-19T12:13:50;3.35;;;2.20;;
69527;SDS011;57136;51.986;4.468;2022-08-19T12:16:17;3.78;;;2.60;;
69527;SDS011;57136;51.986;4.468;2022-08-19T12:18:48;4.38;;;2.67;;
69527;SDS011;57136;51.986;4.468;2022-08-19T12:21:14;3.53;;;2.45;;
69527;SDS011;57136;51.986;4.468;2022-08-19T12:23:46;2.83;;;2.53;;
69527;SDS011;57136;51.986;4.468;2022-08-19T12:26:12;4.22;;;2.60;;
69527;SDS011;57136;51.986;4.468;2022-08-19T12:28:38;6.53;;;2.95;;
69527;SDS011;57136;51.986;4.468;2022-08-19T12:31:03;5.40;;;3.15;;
69527;SDS011;57136;51.986;4.468;2022-08-19T12:33:29;5.88;;;3.00;;
69527;SDS011;57136;51.986;4.468;2022-08-19T12:35:59;5.88;;;2.85;;
69527;SDS011;57136;51.986;4.468;2022-08-19T12:38:27;3.75;;;2.65;;
69527;SDS011;57136;51.986;4.468;2022-08-19T12:40:52;4.68;;;2.85;;
69527;SDS011;57136;51.986;4.468;2022-08-19T12:43:17;2.85;;;2.53;;
69527;SDS011;57136;51.986;4.468;2022-08-19T12:45:44;5.03;;;2.67;;
69527;SDS011;57136;51.986;4.468;2022-08-19T12:48:10;3.17;;;2.70;;
69527;SDS011;57136;51.986;4.468;2022-08-19T12:50:38;4.88;;;3.10;;
69527;SDS011;57136;51.986;4.468;2022-08-19T12:53:04;5.63;;;3.22;;
69527;SDS011;57136;51.986;4.468;2022-08-19T12:55:30;5.90;;;2.95;;
69527;SDS011;57136;51.986;4.468;2022-08-19T12:57:55;5.35;;;3.10;;
69527;SDS011;57136;51.986;4.468;2022-08-19T13:00:21;8.10;;;3.10;;
69527;SDS011;57136;51.986;4.468;2022-08-19T13:02:48;5.55;;;3.17;;
69527;SDS011;57136;51.986;4.468;2022-08-19T13:05:22;5.13;;;3.20;;
69527;SDS011;57136;51.986;4.468;2022-08-19T13:07:50;5.40;;;2.90;;
69527;SDS011;57136;51.986;4.468;2022-08-19T13:10:18;4.97;;;2.38;;
69527;SDS011;57136;51.986;4.468;2022-08-19T13:12:46;3.63;;;2.83;;
69527;SDS011;57136;51.986;4.468;2022-08-19T13:15:13;6.13;;;3.10;;
69527;SDS011;57136;51.986;4.468;2022-08-19T13:17:39;3.75;;;2.97;;
69527;SDS011;57136;51.986;4.468;2022-08-19T13:20:07;4.25;;;2.50;;
69527;SDS011;57136;51.986;4.468;2022-08-19T13:22:33;2.78;;;2.20;;
69527;SDS011;57136;51.986;4.468;2022-08-19T13:25:00;4.10;;;2.25;;
69527;SDS011;57136;51.986;4.468;2022-08-19T13:27:26;2.78;;;2.05;;
69527;SDS011;57136;51.986;4.468;2022-08-19T13:29:51;3.03;;;2.25;;
69527;SDS011;57136;51.986;4.468;2022-08-19T13:32:35;2.42;;;2.00;;
69527;SDS011;57136;51.986;4.468;2022-08-19T13:35:19;2.63;;;2.33;;
69527;SDS011;57136;51.986;4.468;2022-08-19T13:37:45;3.92;;;1.90;;
69527;SDS011;57136;51.986;4.468;2022-08-19T13:40:14;1.65;;;1.40;;
69527;SDS011;57136;51.986;4.468;2022-08-19T13:42:43;3.72;;;1.83;;
69527;SDS011;57136;51.986;4.468;2022-08-19T13:45:12;1.45;;;1.35;;
69527;SDS011;57136;51.986;4.468;2022-08-19T13:47:39;1.83;;;1.40;;
69527;SDS011;57136;51.986;4.468;2022-08-19T13:50:13;3.17;;;1.80;;
69527;SDS011;57136;51.986;4.468;2022-08-19T13:52:40;2.92;;;1.52;;
69527;SDS011;57136;51.986;4.468;2022-08-19T13:55:07;4.10;;;1.70;;
69527;SDS011;57136;51.986;4.468;2022-08-19T13:57:34;2.35;;;1.70;;
69527;SDS011;57136;51.986;4.468;2022-08-19T14:00:00;2.55;;;1.52;;
69527;SDS011;57136;51.986;4.468;2022-08-19T14:02:27;2.50;;;1.60;;
69527;SDS011;57136;51.986;4.468;2022-08-19T14:04:52;2.72;;;1.60;;
69527;SDS011;57136;51.986;4.468;2022-08-19T14:07:18;2.70;;;1.75;;
69527;SDS011;57136;51.986;4.468;2022-08-19T14:09:43;2.20;;;1.77;;
69527;SDS011;57136;51.986;4.468;2022-08-19T14:12:09;3.20;;;1.80;;
69527;SDS011;57136;51.986;4.468;2022-08-19T14:14:38;4.82;;;2.28;;
69527;SDS011;57136;51.986;4.468;2022-08-19T14:17:06;2.75;;;2.35;;
69527;SDS011;57136;51.986;4.468;2022-08-19T14:19:33;2.45;;;1.77;;
69527;SDS011;57136;51.986;4.468;2022-08-19T14:21:58;3.00;;;1.95;;
69527;SDS011;57136;51.986;4.468;2022-08-19T14:24:23;3.75;;;1.83;;
69527;SDS011;57136;51.986;4.468;2022-08-19T14:26:49;2.95;;;2.13;;
69527;SDS011;57136;51.986;4.468;2022-08-19T14:29:14;3.65;;;2.10;;
69527;SDS011;57136;51.986;4.468;2022-08-19T14:31:40;2.58;;;2.10;;
69527;SDS011;57136;51.986;4.468;2022-08-19T14:34:08;1.95;;;1.83;;
69527;SDS011;57136;51.986;4.468;2022-08-19T14:36:35;3.88;;;2.10;;
69527;SDS011;57136;51.986;4.468;2022-08-19T14:39:01;2.95;;;1.75;;
69527;SDS011;57136;51.986;4.468;2022-08-19T14:41:26;5.97;;;2.10;;
69527;SDS011;57136;51.986;4.468;2022-08-19T14:43:52;3.70;;;2.20;;